CheckWX is a tool to help pilots better visualize weather data.  It is not intended as a substitute for an official pre-flight weather briefing.

16:59:01 UTC

CYSF TAF
Stony Rapids Airport
Stony Rapids, Canada
TAF CYSF 231138Z 2312/2324 VRB03KT P6SM OVC012 TEMPO 2312/2324 4SM -SN BR OVC008 RMK FCST BASED ON AUTO OBS. NXT FCST BY 231800Z

Jan-23@
12:00 UTC

Jan-23 @ 12:00 UTC

Jan-24@
00:00 UTC

Jan-24 @ 00:00 UTC

TAF CYSF 231138Z 2312/2324 VRB03KT P6SM OVC012
Wind
  • Variable at 3 KTS
Cloud Levels
  • Overcast at 1,200' AGL

Jan-23@
12:00 UTC

Jan-23 @ 12:00 UTC

Jan-24@
00:00 UTC

Jan-24 @ 00:00 UTC

TEMPO 2312/2324 4SM -SN BR OVC008 RMK FCST BASED ON AUTO OBS. NXT FCST BY 231800Z

Temporary

Temporary Changes expected for less than half the time period

Conditions
Light Snow, Mist
Cloud Levels
  • Overcast at 800' AGL